sensor_id;sensor_type;location;lat;lon;timestamp;P1;durP1;ratioP1;P2;durP2;ratioP2
44145;SDS011;29809;52.432;4.780;2023-01-10T00:00:37;6.13;;;2.50;;
44145;SDS011;29809;52.432;4.780;2023-01-10T00:03:06;7.78;;;2.90;;
44145;SDS011;29809;52.432;4.780;2023-01-10T00:05:32;5.45;;;2.20;;
44145;SDS011;29809;52.432;4.780;2023-01-10T00:07:57;8.90;;;3.10;;
44145;SDS011;29809;52.432;4.780;2023-01-10T00:10:23;7.78;;;2.85;;
44145;SDS011;29809;52.432;4.780;2023-01-10T00:12:48;5.88;;;2.85;;
44145;SDS011;29809;52.432;4.780;2023-01-10T00:15:32;6.00;;;2.45;;
44145;SDS011;29809;52.432;4.780;2023-01-10T00:17:58;7.82;;;2.67;;
44145;SDS011;29809;52.432;4.780;2023-01-10T00:20:23;8.75;;;2.47;;
44145;SDS011;29809;52.432;4.780;2023-01-10T00:22:49;6.45;;;2.03;;
44145;SDS011;29809;52.432;4.780;2023-01-10T00:25:15;7.07;;;2.17;;
44145;SDS011;29809;52.432;4.780;2023-01-10T00:27:40;6.05;;;2.08;;
44145;SDS011;29809;52.432;4.780;2023-01-10T00:30:06;6.57;;;2.30;;
44145;SDS011;29809;52.432;4.780;2023-01-10T00:32:41;6.22;;;2.17;;
44145;SDS011;29809;52.432;4.780;2023-01-10T00:35:07;6.22;;;1.85;;
44145;SDS011;29809;52.432;4.780;2023-01-10T00:37:32;5.13;;;2.35;;
44145;SDS011;29809;52.432;4.780;2023-01-10T00:39:58;6.65;;;2.20;;
44145;SDS011;29809;52.432;4.780;2023-01-10T00:42:23;6.50;;;2.38;;
44145;SDS011;29809;52.432;4.780;2023-01-10T00:45:07;7.90;;;2.50;;
44145;SDS011;29809;52.432;4.780;2023-01-10T00:47:32;6.18;;;2.22;;
44145;SDS011;29809;52.432;4.780;2023-01-10T00:49:57;7.32;;;1.83;;
44145;SDS011;29809;52.432;4.780;2023-01-10T00:52:23;7.30;;;2.40;;
44145;SDS011;29809;52.432;4.780;2023-01-10T00:54:48;5.78;;;2.28;;
44145;SDS011;29809;52.432;4.780;2023-01-10T00:57:13;6.03;;;2.28;;
44145;SDS011;29809;52.432;4.780;2023-01-10T00:59:38;5.13;;;2.08;;
44145;SDS011;29809;52.432;4.780;2023-01-10T01:02:03;9.15;;;2.70;;
44145;SDS011;29809;52.432;4.780;2023-01-10T01:04:29;10.15;;;2.65;;
44145;SDS011;29809;52.432;4.780;2023-01-10T01:06:58;8.05;;;2.35;;
44145;SDS011;29809;52.432;4.780;2023-01-10T01:09:23;4.65;;;1.98;;
44145;SDS011;29809;52.432;4.780;2023-01-10T01:11:49;8.43;;;2.60;;
44145;SDS011;29809;52.432;4.780;2023-01-10T01:14:14;5.15;;;2.17;;
44145;SDS011;29809;52.432;4.780;2023-01-10T01:16:39;6.60;;;2.13;;
44145;SDS011;29809;52.432;4.780;2023-01-10T01:19:04;7.00;;;2.20;;
44145;SDS011;29809;52.432;4.780;2023-01-10T01:21:30;8.35;;;2.30;;
44145;SDS011;29809;52.432;4.780;2023-01-10T01:23:55;7.90;;;2.50;;
44145;SDS011;29809;52.432;4.780;2023-01-10T01:26:24;7.82;;;2.55;;
44145;SDS011;29809;52.432;4.780;2023-01-10T01:28:49;6.35;;;2.47;;
44145;SDS011;29809;52.432;4.780;2023-01-10T01:31:14;9.48;;;2.20;;
44145;SDS011;29809;52.432;4.780;2023-01-10T01:33:40;7.53;;;2.25;;
44145;SDS011;29809;52.432;4.780;2023-01-10T01:36:09;6.45;;;2.15;;
44145;SDS011;29809;52.432;4.780;2023-01-10T01:38:35;5.90;;;2.60;;
44145;SDS011;29809;52.432;4.780;2023-01-10T01:41:00;8.70;;;2.90;;
44145;SDS011;29809;52.432;4.780;2023-01-10T01:43:27;9.77;;;2.65;;
44145;SDS011;29809;52.432;4.780;2023-01-10T01:45:52;7.68;;;2.67;;
44145;SDS011;29809;52.432;4.780;2023-01-10T01:53:11;7.85;;;2.55;;
44145;SDS011;29809;52.432;4.780;2023-01-10T01:55:37;7.53;;;2.22;;
44145;SDS011;29809;52.432;4.780;2023-01-10T01:58:04;7.78;;;2.33;;
44145;SDS011;29809;52.432;4.780;2023-01-10T02:00:30;6.35;;;2.58;;
44145;SDS011;29809;52.432;4.780;2023-01-10T02:02:56;7.65;;;2.85;;
44145;SDS011;29809;52.432;4.780;2023-01-10T02:05:23;6.32;;;2.45;;
44145;SDS011;29809;52.432;4.780;2023-01-10T02:07:50;8.63;;;2.42;;
44145;SDS011;29809;52.432;4.780;2023-01-10T02:10:17;8.63;;;2.50;;
44145;SDS011;29809;52.432;4.780;2023-01-10T02:12:44;10.27;;;2.58;;
44145;SDS011;29809;52.432;4.780;2023-01-10T02:15:10;9.00;;;2.40;;
44145;SDS011;29809;52.432;4.780;2023-01-10T02:17:36;6.75;;;2.50;;
44145;SDS011;29809;52.432;4.780;2023-01-10T02:20:03;8.18;;;2.58;;
44145;SDS011;29809;52.432;4.780;2023-01-10T02:35:51;8.40;;;3.10;;
44145;SDS011;29809;52.432;4.780;2023-01-10T02:40:54;8.30;;;2.65;;
44145;SDS011;29809;52.432;4.780;2023-01-10T02:43:29;8.00;;;2.55;;
44145;SDS011;29809;52.432;4.780;2023-01-10T02:45:57;8.20;;;2.97;;
44145;SDS011;29809;52.432;4.780;2023-01-10T02:48:23;7.53;;;2.53;;
44145;SDS011;29809;52.432;4.780;2023-01-10T02:51:13;9.10;;;2.40;;
44145;SDS011;29809;52.432;4.780;2023-01-10T02:53:38;8.82;;;2.83;;
44145;SDS011;29809;52.432;4.780;2023-01-10T03:01:25;5.75;;;2.38;;
44145;SDS011;29809;52.432;4.780;2023-01-10T03:03:56;8.52;;;2.30;;
44145;SDS011;29809;52.432;4.780;2023-01-10T03:06:32;6.85;;;2.40;;
44145;SDS011;29809;52.432;4.780;2023-01-10T03:09:05;8.02;;;2.60;;
44145;SDS011;29809;52.432;4.780;2023-01-10T03:11:32;8.10;;;2.30;;
44145;SDS011;29809;52.432;4.780;2023-01-10T03:14:06;7.00;;;2.28;;
44145;SDS011;29809;52.432;4.780;2023-01-10T03:16:33;6.03;;;2.47;;
44145;SDS011;29809;52.432;4.780;2023-01-10T03:19:00;6.50;;;2.50;;
44145;SDS011;29809;52.432;4.780;2023-01-10T03:21:28;7.27;;;2.87;;
44145;SDS011;29809;52.432;4.780;2023-01-10T03:23:55;7.70;;;2.67;;
44145;SDS011;29809;52.432;4.780;2023-01-10T03:26:26;7.95;;;2.83;;
44145;SDS011;29809;52.432;4.780;2023-01-10T03:28:55;10.40;;;3.25;;
44145;SDS011;29809;52.432;4.780;2023-01-10T03:31:29;14.23;;;3.50;;
44145;SDS011;29809;52.432;4.780;2023-01-10T03:33:56;7.40;;;2.67;;
44145;SDS011;29809;52.432;4.780;2023-01-10T03:36:29;8.00;;;2.65;;
44145;SDS011;29809;52.432;4.780;2023-01-10T03:38:56;7.55;;;2.60;;
44145;SDS011;29809;52.432;4.780;2023-01-10T03:41:30;8.93;;;2.10;;
44145;SDS011;29809;52.432;4.780;2023-01-10T03:44:17;8.85;;;2.80;;
44145;SDS011;29809;52.432;4.780;2023-01-10T03:49:47;9.18;;;2.65;;
44145;SDS011;29809;52.432;4.780;2023-01-10T03:52:15;5.55;;;1.92;;
44145;SDS011;29809;52.432;4.780;2023-01-10T03:54:43;7.80;;;2.33;;
44145;SDS011;29809;52.432;4.780;2023-01-10T03:57:14;10.05;;;2.78;;
44145;SDS011;29809;52.432;4.780;2023-01-10T03:59:39;8.65;;;2.70;;
44145;SDS011;29809;52.432;4.780;2023-01-10T04:02:04;9.73;;;2.83;;
44145;SDS011;29809;52.432;4.780;2023-01-10T04:04:30;7.38;;;2.80;;
44145;SDS011;29809;52.432;4.780;2023-01-10T04:06:56;9.65;;;2.67;;
44145;SDS011;29809;52.432;4.780;2023-01-10T04:09:21;9.40;;;2.55;;
44145;SDS011;29809;52.432;4.780;2023-01-10T04:11:47;9.45;;;2.95;;
44145;SDS011;29809;52.432;4.780;2023-01-10T04:14:12;8.18;;;2.75;;
44145;SDS011;29809;52.432;4.780;2023-01-10T04:16:37;9.13;;;2.50;;
44145;SDS011;29809;52.432;4.780;2023-01-10T04:19:02;9.43;;;2.85;;
44145;SDS011;29809;52.432;4.780;2023-01-10T04:21:28;11.15;;;3.45;;
44145;SDS011;29809;52.432;4.780;2023-01-10T04:23:53;11.48;;;3.10;;
44145;SDS011;29809;52.432;4.780;2023-01-10T04:26:18;9.55;;;3.40;;
44145;SDS011;29809;52.432;4.780;2023-01-10T04:28:43;10.57;;;2.90;;
44145;SDS011;29809;52.432;4.780;2023-01-10T04:31:09;8.55;;;3.15;;
44145;SDS011;29809;52.432;4.780;2023-01-10T04:33:34;9.18;;;3.45;;
44145;SDS011;29809;52.432;4.780;2023-01-10T04:35:59;9.30;;;2.42;;
44145;SDS011;29809;52.432;4.780;2023-01-10T04:38:24;8.60;;;2.85;;
44145;SDS011;29809;52.432;4.780;2023-01-10T04:40:53;8.63;;;2.45;;
44145;SDS011;29809;52.432;4.780;2023-01-10T04:43:19;7.63;;;2.85;;
44145;SDS011;29809;52.432;4.780;2023-01-10T04:45:44;9.27;;;2.75;;
44145;SDS011;29809;52.432;4.780;2023-01-10T04:48:09;10.32;;;2.92;;
44145;SDS011;29809;52.432;4.780;2023-01-10T04:50:34;10.35;;;3.53;;
44145;SDS011;29809;52.432;4.780;2023-01-10T04:53:00;8.27;;;2.60;;
44145;SDS011;29809;52.432;4.780;2023-01-10T04:55:25;8.07;;;2.45;;
44145;SDS011;29809;52.432;4.780;2023-01-10T04:57:50;8.65;;;2.80;;
44145;SDS011;29809;52.432;4.780;2023-01-10T05:00:15;5.20;;;2.50;;
44145;SDS011;29809;52.432;4.780;2023-01-10T05:02:41;9.25;;;2.28;;
44145;SDS011;29809;52.432;4.780;2023-01-10T05:05:11;7.20;;;2.38;;
44145;SDS011;29809;52.432;4.780;2023-01-10T05:07:37;8.98;;;2.40;;
44145;SDS011;29809;52.432;4.780;2023-01-10T05:10:03;7.68;;;2.60;;
44145;SDS011;29809;52.432;4.780;2023-01-10T05:12:28;6.40;;;2.45;;
44145;SDS011;29809;52.432;4.780;2023-01-10T05:14:53;6.60;;;2.42;;
44145;SDS011;29809;52.432;4.780;2023-01-10T05:17:19;7.78;;;2.58;;
44145;SDS011;29809;52.432;4.780;2023-01-10T05:19:44;7.28;;;2.28;;
44145;SDS011;29809;52.432;4.780;2023-01-10T05:22:09;8.35;;;2.40;;
44145;SDS011;29809;52.432;4.780;2023-01-10T05:24:34;4.63;;;2.50;;
44145;SDS011;29809;52.432;4.780;2023-01-10T05:27:00;7.88;;;2.63;;
44145;SDS011;29809;52.432;4.780;2023-01-10T05:29:25;6.47;;;2.15;;
44145;SDS011;29809;52.432;4.780;2023-01-10T05:31:50;6.82;;;2.30;;
44145;SDS011;29809;52.432;4.780;2023-01-10T05:34:15;6.47;;;2.55;;
44145;SDS011;29809;52.432;4.780;2023-01-10T05:36:41;4.78;;;1.88;;
44145;SDS011;29809;52.432;4.780;2023-01-10T05:39:06;9.68;;;2.45;;
44145;SDS011;29809;52.432;4.780;2023-01-10T05:41:31;6.70;;;2.50;;
44145;SDS011;29809;52.432;4.780;2023-01-10T05:43:57;6.55;;;2.38;;
44145;SDS011;29809;52.432;4.780;2023-01-10T05:46:22;7.35;;;4.03;;
44145;SDS011;29809;52.432;4.780;2023-01-10T05:48:47;7.68;;;2.47;;
44145;SDS011;29809;52.432;4.780;2023-01-10T05:51:12;7.95;;;2.42;;
44145;SDS011;29809;52.432;4.780;2023-01-10T05:53:38;7.22;;;2.28;;
44145;SDS011;29809;52.432;4.780;2023-01-10T05:56:03;5.15;;;2.05;;
44145;SDS011;29809;52.432;4.780;2023-01-10T05:58:29;4.65;;;2.40;;
44145;SDS011;29809;52.432;4.780;2023-01-10T06:00:54;5.93;;;2.33;;
44145;SDS011;29809;52.432;4.780;2023-01-10T06:03:20;7.53;;;2.38;;
44145;SDS011;29809;52.432;4.780;2023-01-10T06:05:45;7.57;;;2.33;;
44145;SDS011;29809;52.432;4.780;2023-01-10T06:08:10;170.85;;;39.80;;
44145;SDS011;29809;52.432;4.780;2023-01-10T06:10:36;73.25;;;21.63;;
44145;SDS011;29809;52.432;4.780;2023-01-10T06:13:01;108.30;;;28.67;;
44145;SDS011;29809;52.432;4.780;2023-01-10T06:15:26;83.70;;;27.10;;
44145;SDS011;29809;52.432;4.780;2023-01-10T06:17:52;91.78;;;25.42;;
44145;SDS011;29809;52.432;4.780;2023-01-10T06:20:17;76.57;;;23.20;;
44145;SDS011;29809;52.432;4.780;2023-01-10T06:22:43;73.72;;;22.85;;
44145;SDS011;29809;52.432;4.780;2023-01-10T06:25:09;60.95;;;22.52;;
44145;SDS011;29809;52.432;4.780;2023-01-10T06:27:34;62.88;;;21.23;;
44145;SDS011;29809;52.432;4.780;2023-01-10T06:30:00;66.40;;;19.70;;
44145;SDS011;29809;52.432;4.780;2023-01-10T06:32:25;50.53;;;18.35;;
44145;SDS011;29809;52.432;4.780;2023-01-10T06:34:51;56.33;;;18.80;;
44145;SDS011;29809;52.432;4.780;2023-01-10T06:37:16;36.95;;;16.48;;
44145;SDS011;29809;52.432;4.780;2023-01-10T06:39:41;39.83;;;14.73;;
44145;SDS011;29809;52.432;4.780;2023-01-10T06:42:06;40.70;;;14.90;;
44145;SDS011;29809;52.432;4.780;2023-01-10T06:44:32;47.65;;;15.40;;
44145;SDS011;29809;52.432;4.780;2023-01-10T06:46:57;35.80;;;14.00;;
44145;SDS011;29809;52.432;4.780;2023-01-10T06:49:22;32.25;;;12.27;;
44145;SDS011;29809;52.432;4.780;2023-01-10T06:51:47;29.30;;;12.00;;
44145;SDS011;29809;52.432;4.780;2023-01-10T06:54:13;29.95;;;11.55;;
44145;SDS011;29809;52.432;4.780;2023-01-10T06:56:38;28.15;;;11.18;;
44145;SDS011;29809;52.432;4.780;2023-01-10T06:59:03;30.27;;;10.75;;
44145;SDS011;29809;52.432;4.780;2023-01-10T07:01:28;29.85;;;10.85;;
44145;SDS011;29809;52.432;4.780;2023-01-10T07:03:54;23.13;;;9.75;;
44145;SDS011;29809;52.432;4.780;2023-01-10T07:06:19;24.00;;;9.00;;
44145;SDS011;29809;52.432;4.780;2023-01-10T07:08:45;22.02;;;8.77;;
44145;SDS011;29809;52.432;4.780;2023-01-10T07:11:14;21.48;;;8.60;;
44145;SDS011;29809;52.432;4.780;2023-01-10T07:13:39;22.50;;;9.90;;
44145;SDS011;29809;52.432;4.780;2023-01-10T07:16:06;18.77;;;8.15;;
44145;SDS011;29809;52.432;4.780;2023-01-10T07:18:35;19.77;;;7.63;;
44145;SDS011;29809;52.432;4.780;2023-01-10T07:21:01;19.48;;;7.85;;
44145;SDS011;29809;52.432;4.780;2023-01-10T07:23:26;20.03;;;6.30;;
44145;SDS011;29809;52.432;4.780;2023-01-10T07:25:51;17.50;;;6.18;;
44145;SDS011;29809;52.432;4.780;2023-01-10T07:28:16;15.30;;;5.88;;
44145;SDS011;29809;52.432;4.780;2023-01-10T07:30:42;22.38;;;6.65;;
44145;SDS011;29809;52.432;4.780;2023-01-10T07:33:07;14.27;;;5.35;;
44145;SDS011;29809;52.432;4.780;2023-01-10T07:35:32;15.80;;;6.75;;
44145;SDS011;29809;52.432;4.780;2023-01-10T07:37:58;15.85;;;6.07;;
44145;SDS011;29809;52.432;4.780;2023-01-10T07:40:23;15.52;;;5.47;;
44145;SDS011;29809;52.432;4.780;2023-01-10T07:42:49;11.80;;;4.82;;
44145;SDS011;29809;52.432;4.780;2023-01-10T07:45:14;13.57;;;4.65;;
44145;SDS011;29809;52.432;4.780;2023-01-10T07:47:39;16.13;;;4.85;;
44145;SDS011;29809;52.432;4.780;2023-01-10T07:50:05;13.70;;;5.43;;
44145;SDS011;29809;52.432;4.780;2023-01-10T07:52:31;15.85;;;4.60;;
44145;SDS011;29809;52.432;4.780;2023-01-10T07:54:56;13.00;;;4.50;;
44145;SDS011;29809;52.432;4.780;2023-01-10T07:57:21;11.95;;;4.47;;
44145;SDS011;29809;52.432;4.780;2023-01-10T07:59:47;11.02;;;4.00;;
44145;SDS011;29809;52.432;4.780;2023-01-10T08:02:12;12.23;;;4.53;;
44145;SDS011;29809;52.432;4.780;2023-01-10T08:04:37;13.57;;;5.05;;
44145;SDS011;29809;52.432;4.780;2023-01-10T08:07:03;9.95;;;4.53;;
44145;SDS011;29809;52.432;4.780;2023-01-10T08:09:28;10.52;;;4.03;;
44145;SDS011;29809;52.432;4.780;2023-01-10T08:11:53;9.88;;;4.28;;
44145;SDS011;29809;52.432;4.780;2023-01-10T08:14:19;11.15;;;4.20;;
44145;SDS011;29809;52.432;4.780;2023-01-10T08:16:44;12.13;;;4.05;;
44145;SDS011;29809;52.432;4.780;2023-01-10T08:19:09;12.90;;;4.30;;
44145;SDS011;29809;52.432;4.780;2023-01-10T08:21:39;13.13;;;4.83;;
44145;SDS011;29809;52.432;4.780;2023-01-10T08:24:04;9.95;;;4.43;;
44145;SDS011;29809;52.432;4.780;2023-01-10T08:26:29;9.10;;;3.63;;
44145;SDS011;29809;52.432;4.780;2023-01-10T08:28:55;12.40;;;4.20;;
44145;SDS011;29809;52.432;4.780;2023-01-10T08:31:20;8.23;;;3.50;;
44145;SDS011;29809;52.432;4.780;2023-01-10T08:33:45;14.00;;;4.32;;
44145;SDS011;29809;52.432;4.780;2023-01-10T08:36:14;12.60;;;4.38;;
44145;SDS011;29809;52.432;4.780;2023-01-10T08:38:40;10.35;;;3.38;;
44145;SDS011;29809;52.432;4.780;2023-01-10T08:41:06;10.45;;;3.53;;
44145;SDS011;29809;52.432;4.780;2023-01-10T08:43:31;11.20;;;3.80;;
44145;SDS011;29809;52.432;4.780;2023-01-10T08:45:56;15.10;;;4.85;;
44145;SDS011;29809;52.432;4.780;2023-01-10T08:48:22;9.38;;;3.80;;
44145;SDS011;29809;52.432;4.780;2023-01-10T08:50:47;8.55;;;3.65;;
44145;SDS011;29809;52.432;4.780;2023-01-10T08:53:12;12.15;;;3.67;;
44145;SDS011;29809;52.432;4.780;2023-01-10T08:55:37;12.85;;;3.47;;
44145;SDS011;29809;52.432;4.780;2023-01-10T08:58:03;8.32;;;3.22;;
44145;SDS011;29809;52.432;4.780;2023-01-10T09:00:28;11.05;;;3.67;;
44145;SDS011;29809;52.432;4.780;2023-01-10T09:02:54;12.52;;;4.00;;
44145;SDS011;29809;52.432;4.780;2023-01-10T09:05:19;8.30;;;3.53;;
44145;SDS011;29809;52.432;4.780;2023-01-10T09:07:44;9.95;;;3.70;;
44145;SDS011;29809;52.432;4.780;2023-01-10T09:10:10;11.55;;;4.03;;
44145;SDS011;29809;52.432;4.780;2023-01-10T09:12:35;11.65;;;3.70;;
44145;SDS011;29809;52.432;4.780;2023-01-10T09:15:20;9.88;;;3.78;;
44145;SDS011;29809;52.432;4.780;2023-01-10T09:17:46;12.45;;;3.55;;
44145;SDS011;29809;52.432;4.780;2023-01-10T09:20:11;8.88;;;4.28;;
44145;SDS011;29809;52.432;4.780;2023-01-10T09:22:36;10.30;;;3.63;;
44145;SDS011;29809;52.432;4.780;2023-01-10T09:25:02;9.63;;;3.47;;
44145;SDS011;29809;52.432;4.780;2023-01-10T09:27:27;9.75;;;3.75;;
44145;SDS011;29809;52.432;4.780;2023-01-10T09:29:52;9.18;;;4.03;;
44145;SDS011;29809;52.432;4.780;2023-01-10T09:32:18;8.23;;;3.58;;
44145;SDS011;29809;52.432;4.780;2023-01-10T09:34:43;7.72;;;3.67;;
44145;SDS011;29809;52.432;4.780;2023-01-10T09:37:09;8.90;;;4.00;;
44145;SDS011;29809;52.432;4.780;2023-01-10T09:39:34;8.10;;;3.55;;
44145;SDS011;29809;52.432;4.780;2023-01-10T09:52:22;9.73;;;3.65;;
44145;SDS011;29809;52.432;4.780;2023-01-10T09:54:47;13.68;;;4.65;;
44145;SDS011;29809;52.432;4.780;2023-01-10T09:57:18;7.85;;;3.10;;
44145;SDS011;29809;52.432;4.780;2023-01-10T09:59:44;9.45;;;3.20;;
44145;SDS011;29809;52.432;4.780;2023-01-10T10:07:35;9.25;;;3.65;;
44145;SDS011;29809;52.432;4.780;2023-01-10T10:10:00;7.53;;;3.87;;
44145;SDS011;29809;52.432;4.780;2023-01-10T10:17:31;8.45;;;3.67;;
44145;SDS011;29809;52.432;4.780;2023-01-10T10:20:46;9.57;;;4.55;;
44145;SDS011;29809;52.432;4.780;2023-01-10T10:30:26;8.25;;;3.20;;
44145;SDS011;29809;52.432;4.780;2023-01-10T10:37:51;6.07;;;3.08;;
44145;SDS011;29809;52.432;4.780;2023-01-10T10:40:18;8.60;;;2.93;;
44145;SDS011;29809;52.432;4.780;2023-01-10T10:42:45;6.40;;;2.95;;
44145;SDS011;29809;52.432;4.780;2023-01-10T10:47:49;5.10;;;3.03;;
44145;SDS011;29809;52.432;4.780;2023-01-10T10:50:18;7.68;;;3.42;;
44145;SDS011;29809;52.432;4.780;2023-01-10T10:52:45;8.60;;;3.13;;
44145;SDS011;29809;52.432;4.780;2023-01-10T10:55:26;7.85;;;3.10;;
44145;SDS011;29809;52.432;4.780;2023-01-10T10:57:53;7.80;;;2.97;;
44145;SDS011;29809;52.432;4.780;2023-01-10T11:00:19;5.35;;;2.33;;
44145;SDS011;29809;52.432;4.780;2023-01-10T11:02:48;5.82;;;2.58;;
44145;SDS011;29809;52.432;4.780;2023-01-10T11:05:19;6.38;;;2.55;;
44145;SDS011;29809;52.432;4.780;2023-01-10T11:07:45;7.18;;;3.13;;
44145;SDS011;29809;52.432;4.780;2023-01-10T11:10:13;7.93;;;3.33;;
44145;SDS011;29809;52.432;4.780;2023-01-10T11:12:43;6.93;;;2.70;;
44145;SDS011;29809;52.432;4.780;2023-01-10T11:15:12;6.32;;;3.25;;
44145;SDS011;29809;52.432;4.780;2023-01-10T11:18:10;6.35;;;2.63;;
44145;SDS011;29809;52.432;4.780;2023-01-10T11:20:36;5.88;;;2.78;;
44145;SDS011;29809;52.432;4.780;2023-01-10T11:23:01;9.10;;;2.88;;
44145;SDS011;29809;52.432;4.780;2023-01-10T11:25:27;8.25;;;3.53;;
44145;SDS011;29809;52.432;4.780;2023-01-10T11:27:53;5.25;;;2.47;;
44145;SDS011;29809;52.432;4.780;2023-01-10T11:32:51;7.55;;;3.33;;
44145;SDS011;29809;52.432;4.780;2023-01-10T11:35:21;6.95;;;2.60;;
44145;SDS011;29809;52.432;4.780;2023-01-10T11:38:02;6.53;;;2.80;;
44145;SDS011;29809;52.432;4.780;2023-01-10T11:40:29;5.00;;;2.60;;
44145;SDS011;29809;52.432;4.780;2023-01-10T11:42:55;8.73;;;2.97;;
44145;SDS011;29809;52.432;4.780;2023-01-10T11:45:22;7.10;;;3.00;;
44145;SDS011;29809;52.432;4.780;2023-01-10T11:50:30;6.45;;;2.85;;
44145;SDS011;29809;52.432;4.780;2023-01-10T11:52:56;10.18;;;3.03;;
44145;SDS011;29809;52.432;4.780;2023-01-10T11:55:23;4.45;;;2.70;;
44145;SDS011;29809;52.432;4.780;2023-01-10T11:57:56;8.23;;;2.83;;
44145;SDS011;29809;52.432;4.780;2023-01-10T12:00:29;4.97;;;2.47;;
44145;SDS011;29809;52.432;4.780;2023-01-10T12:02:55;4.47;;;2.45;;
44145;SDS011;29809;52.432;4.780;2023-01-10T12:05:21;8.25;;;3.05;;
44145;SDS011;29809;52.432;4.780;2023-01-10T12:10:19;6.20;;;2.60;;
44145;SDS011;29809;52.432;4.780;2023-01-10T12:12:51;7.25;;;2.67;;
44145;SDS011;29809;52.432;4.780;2023-01-10T12:15:25;5.70;;;2.47;;
44145;SDS011;29809;52.432;4.780;2023-01-10T12:17:51;7.20;;;3.00;;
44145;SDS011;29809;52.432;4.780;2023-01-10T12:20:17;5.75;;;2.50;;
44145;SDS011;29809;52.432;4.780;2023-01-10T12:22:46;6.25;;;2.80;;
44145;SDS011;29809;52.432;4.780;2023-01-10T12:27:41;6.78;;;3.25;;
44145;SDS011;29809;52.432;4.780;2023-01-10T12:30:12;6.97;;;2.33;;
44145;SDS011;29809;52.432;4.780;2023-01-10T12:32:43;5.55;;;3.13;;
44145;SDS011;29809;52.432;4.780;2023-01-10T12:35:15;6.65;;;2.45;;
44145;SDS011;29809;52.432;4.780;2023-01-10T12:37:45;6.25;;;2.70;;
44145;SDS011;29809;52.432;4.780;2023-01-10T12:40:14;4.35;;;2.38;;
44145;SDS011;29809;52.432;4.780;2023-01-10T12:42:45;6.80;;;2.40;;
44145;SDS011;29809;52.432;4.780;2023-01-10T12:45:32;6.45;;;2.60;;
44145;SDS011;29809;52.432;4.780;2023-01-10T12:48:04;5.93;;;2.58;;
44145;SDS011;29809;52.432;4.780;2023-01-10T12:55:42;7.55;;;2.95;;
44145;SDS011;29809;52.432;4.780;2023-01-10T12:58:15;5.45;;;2.95;;
44145;SDS011;29809;52.432;4.780;2023-01-10T13:00:42;7.80;;;2.67;;
44145;SDS011;29809;52.432;4.780;2023-01-10T13:03:11;3.90;;;2.08;;
44145;SDS011;29809;52.432;4.780;2023-01-10T13:05:37;5.47;;;2.28;;
44145;SDS011;29809;52.432;4.780;2023-01-10T13:08:08;6.80;;;2.15;;
44145;SDS011;29809;52.432;4.780;2023-01-10T13:10:35;4.80;;;2.00;;
44145;SDS011;29809;52.432;4.780;2023-01-10T13:13:47;4.85;;;2.58;;
44145;SDS011;29809;52.432;4.780;2023-01-10T13:15:56;8.30;;;2.80;;
44145;SDS011;29809;52.432;4.780;2023-01-10T13:18:25;5.43;;;2.72;;
44145;SDS011;29809;52.432;4.780;2023-01-10T13:21:04;5.97;;;2.58;;
44145;SDS011;29809;52.432;4.780;2023-01-10T13:23:33;5.90;;;2.42;;
44145;SDS011;29809;52.432;4.780;2023-01-10T13:26:00;8.20;;;2.45;;
44145;SDS011;29809;52.432;4.780;2023-01-10T13:28:26;6.22;;;2.53;;
44145;SDS011;29809;52.432;4.780;2023-01-10T13:30:56;6.15;;;2.55;;
44145;SDS011;29809;52.432;4.780;2023-01-10T13:33:23;6.57;;;2.50;;
44145;SDS011;29809;52.432;4.780;2023-01-10T13:35:49;7.18;;;2.67;;
44145;SDS011;29809;52.432;4.780;2023-01-10T13:38:16;8.02;;;2.38;;
44145;SDS011;29809;52.432;4.780;2023-01-10T13:40:54;5.03;;;2.03;;
44145;SDS011;29809;52.432;4.780;2023-01-10T13:43:23;4.60;;;2.20;;
44145;SDS011;29809;52.432;4.780;2023-01-10T13:46:39;5.97;;;2.28;;
44145;SDS011;29809;52.432;4.780;2023-01-10T13:48:38;4.65;;;2.13;;
44145;SDS011;29809;52.432;4.780;2023-01-10T13:51:12;6.05;;;2.33;;
44145;SDS011;29809;52.432;4.780;2023-01-10T13:53:49;6.85;;;2.17;;
44145;SDS011;29809;52.432;4.780;2023-01-10T13:56:32;4.45;;;2.50;;
44145;SDS011;29809;52.432;4.780;2023-01-10T13:58:58;6.00;;;2.13;;
44145;SDS011;29809;52.432;4.780;2023-01-10T14:01:41;6.10;;;2.53;;
44145;SDS011;29809;52.432;4.780;2023-01-10T14:04:26;6.72;;;2.78;;
44145;SDS011;29809;52.432;4.780;2023-01-10T14:06:56;5.20;;;2.17;;
44145;SDS011;29809;52.432;4.780;2023-01-10T14:11:51;5.72;;;2.03;;
44145;SDS011;29809;52.432;4.780;2023-01-10T14:16:52;5.00;;;2.20;;
44145;SDS011;29809;52.432;4.780;2023-01-10T14:19:21;6.18;;;2.25;;
44145;SDS011;29809;52.432;4.780;2023-01-10T14:21:49;7.25;;;3.10;;
44145;SDS011;29809;52.432;4.780;2023-01-10T14:26:46;4.47;;;2.10;;
44145;SDS011;29809;52.432;4.780;2023-01-10T14:29:13;4.72;;;2.88;;
44145;SDS011;29809;52.432;4.780;2023-01-10T14:31:43;8.98;;;2.60;;
44145;SDS011;29809;52.432;4.780;2023-01-10T14:34:09;3.67;;;1.98;;
44145;SDS011;29809;52.432;4.780;2023-01-10T14:36:48;6.13;;;2.67;;
44145;SDS011;29809;52.432;4.780;2023-01-10T14:39:16;5.13;;;2.40;;
44145;SDS011;29809;52.432;4.780;2023-01-10T14:41:42;5.90;;;2.42;;
44145;SDS011;29809;52.432;4.780;2023-01-10T14:44:16;7.10;;;2.83;;
44145;SDS011;29809;52.432;4.780;2023-01-10T14:46:46;4.68;;;2.65;;
44145;SDS011;29809;52.432;4.780;2023-01-10T14:49:18;4.75;;;2.53;;
44145;SDS011;29809;52.432;4.780;2023-01-10T14:51:44;4.90;;;2.17;;
44145;SDS011;29809;52.432;4.780;2023-01-10T14:54:11;3.90;;;2.22;;
44145;SDS011;29809;52.432;4.780;2023-01-10T15:01:58;4.75;;;2.40;;
44145;SDS011;29809;52.432;4.780;2023-01-10T15:04:31;4.63;;;2.40;;
44145;SDS011;29809;52.432;4.780;2023-01-10T15:07:10;5.03;;;2.22;;
44145;SDS011;29809;52.432;4.780;2023-01-10T15:09:36;7.30;;;2.42;;
44145;SDS011;29809;52.432;4.780;2023-01-10T15:12:02;4.72;;;2.40;;
44145;SDS011;29809;52.432;4.780;2023-01-10T15:14:28;4.13;;;2.22;;
44145;SDS011;29809;52.432;4.780;2023-01-10T15:16:55;4.32;;;2.10;;
44145;SDS011;29809;52.432;4.780;2023-01-10T15:19:22;3.40;;;2.28;;
44145;SDS011;29809;52.432;4.780;2023-01-10T15:21:48;5.93;;;3.13;;
44145;SDS011;29809;52.432;4.780;2023-01-10T15:24:33;3.78;;;1.85;;
44145;SDS011;29809;52.432;4.780;2023-01-10T15:26:59;4.50;;;1.98;;
44145;SDS011;29809;52.432;4.780;2023-01-10T15:29:25;5.35;;;2.63;;
44145;SDS011;29809;52.432;4.780;2023-01-10T15:31:52;5.75;;;2.00;;
44145;SDS011;29809;52.432;4.780;2023-01-10T15:34:20;6.20;;;2.20;;
44145;SDS011;29809;52.432;4.780;2023-01-10T15:36:56;3.70;;;1.95;;
44145;SDS011;29809;52.432;4.780;2023-01-10T15:39:25;3.33;;;2.23;;
44145;SDS011;29809;52.432;4.780;2023-01-10T15:41:54;5.87;;;2.30;;
44145;SDS011;29809;52.432;4.780;2023-01-10T15:44:21;3.17;;;1.98;;
44145;SDS011;29809;52.432;4.780;2023-01-10T15:46:54;4.50;;;1.70;;
44145;SDS011;29809;52.432;4.780;2023-01-10T15:49:20;5.72;;;2.40;;
44145;SDS011;29809;52.432;4.780;2023-01-10T15:51:47;4.27;;;1.90;;
44145;SDS011;29809;52.432;4.780;2023-01-10T15:56:47;3.43;;;1.90;;
44145;SDS011;29809;52.432;4.780;2023-01-10T15:59:25;3.25;;;2.00;;
44145;SDS011;29809;52.432;4.780;2023-01-10T16:02:33;4.60;;;2.28;;
44145;SDS011;29809;52.432;4.780;2023-01-10T16:04:39;4.60;;;2.00;;
44145;SDS011;29809;52.432;4.780;2023-01-10T16:07:05;4.38;;;1.70;;
44145;SDS011;29809;52.432;4.780;2023-01-10T16:09:31;4.40;;;2.20;;
44145;SDS011;29809;52.432;4.780;2023-01-10T16:11:56;4.17;;;2.23;;
44145;SDS011;29809;52.432;4.780;2023-01-10T16:14:40;4.30;;;2.20;;
44145;SDS011;29809;52.432;4.780;2023-01-10T16:17:06;2.87;;;1.80;;
44145;SDS011;29809;52.432;4.780;2023-01-10T16:19:31;4.07;;;1.90;;
44145;SDS011;29809;52.432;4.780;2023-01-10T16:21:57;2.43;;;1.90;;